sensor_id;sensor_type;location;lat;lon;timestamp;P1;durP1;ratioP1;P2;durP2;ratioP2
52284;SDS011;38238;53.304;6.606;2023-01-24T00:00:04;17.65;;;15.93;;
52284;SDS011;38238;53.304;6.606;2023-01-24T00:02:31;18.75;;;16.83;;
52284;SDS011;38238;53.304;6.606;2023-01-24T00:04:57;18.02;;;14.93;;
52284;SDS011;38238;53.304;6.606;2023-01-24T00:07:23;17.83;;;16.02;;
52284;SDS011;38238;53.304;6.606;2023-01-24T00:09:48;17.55;;;15.85;;
52284;SDS011;38238;53.304;6.606;2023-01-24T00:12:14;18.15;;;15.88;;
52284;SDS011;38238;53.304;6.606;2023-01-24T00:14:40;17.45;;;14.45;;
52284;SDS011;38238;53.304;6.606;2023-01-24T00:17:06;16.83;;;15.02;;
52284;SDS011;38238;53.304;6.606;2023-01-24T00:19:33;16.30;;;14.60;;
52284;SDS011;38238;53.304;6.606;2023-01-24T00:21:59;18.33;;;15.00;;
52284;SDS011;38238;53.304;6.606;2023-01-24T00:24:25;17.70;;;15.38;;
52284;SDS011;38238;53.304;6.606;2023-01-24T00:26:51;19.67;;;15.77;;
52284;SDS011;38238;53.304;6.606;2023-01-24T00:29:17;17.52;;;15.48;;
52284;SDS011;38238;53.304;6.606;2023-01-24T00:31:43;17.73;;;14.57;;
52284;SDS011;38238;53.304;6.606;2023-01-24T00:34:09;20.10;;;15.88;;
52284;SDS011;38238;53.304;6.606;2023-01-24T00:36:34;17.17;;;15.30;;
52284;SDS011;38238;53.304;6.606;2023-01-24T00:39:00;18.00;;;15.27;;
52284;SDS011;38238;53.304;6.606;2023-01-24T00:41:27;18.73;;;15.50;;
52284;SDS011;38238;53.304;6.606;2023-01-24T00:43:53;18.38;;;16.30;;
52284;SDS011;38238;53.304;6.606;2023-01-24T00:46:18;17.77;;;15.80;;
52284;SDS011;38238;53.304;6.606;2023-01-24T00:48:44;22.23;;;16.02;;
52284;SDS011;38238;53.304;6.606;2023-01-24T00:51:10;19.55;;;15.20;;
52284;SDS011;38238;53.304;6.606;2023-01-24T00:53:36;17.17;;;15.38;;
52284;SDS011;38238;53.304;6.606;2023-01-24T00:56:02;17.23;;;14.52;;
52284;SDS011;38238;53.304;6.606;2023-01-24T00:58:28;20.70;;;15.88;;
52284;SDS011;38238;53.304;6.606;2023-01-24T01:00:56;19.13;;;15.02;;
52284;SDS011;38238;53.304;6.606;2023-01-24T01:03:25;20.10;;;15.75;;
52284;SDS011;38238;53.304;6.606;2023-01-24T01:06:08;20.85;;;16.15;;
52284;SDS011;38238;53.304;6.606;2023-01-24T01:08:37;18.10;;;15.10;;
52284;SDS011;38238;53.304;6.606;2023-01-24T01:11:03;21.58;;;16.23;;
52284;SDS011;38238;53.304;6.606;2023-01-24T01:13:30;18.77;;;15.50;;
52284;SDS011;38238;53.304;6.606;2023-01-24T01:16:12;19.50;;;15.65;;
52284;SDS011;38238;53.304;6.606;2023-01-24T01:18:41;20.17;;;16.15;;
52284;SDS011;38238;53.304;6.606;2023-01-24T01:21:07;20.92;;;15.27;;
52284;SDS011;38238;53.304;6.606;2023-01-24T01:23:36;16.95;;;14.27;;
52284;SDS011;38238;53.304;6.606;2023-01-24T01:26:03;18.08;;;15.45;;
52284;SDS011;38238;53.304;6.606;2023-01-24T01:28:31;19.48;;;14.88;;
52284;SDS011;38238;53.304;6.606;2023-01-24T01:30:57;20.00;;;16.13;;
52284;SDS011;38238;53.304;6.606;2023-01-24T01:33:23;19.95;;;15.18;;
52284;SDS011;38238;53.304;6.606;2023-01-24T01:35:50;21.02;;;15.90;;
52284;SDS011;38238;53.304;6.606;2023-01-24T01:38:17;19.17;;;15.10;;
52284;SDS011;38238;53.304;6.606;2023-01-24T01:40:43;20.73;;;16.23;;
52284;SDS011;38238;53.304;6.606;2023-01-24T01:43:13;19.98;;;16.42;;
52284;SDS011;38238;53.304;6.606;2023-01-24T01:45:50;20.45;;;16.38;;
52284;SDS011;38238;53.304;6.606;2023-01-24T01:48:36;18.27;;;14.85;;
52284;SDS011;38238;53.304;6.606;2023-01-24T01:56:35;21.17;;;16.75;;
52284;SDS011;38238;53.304;6.606;2023-01-24T01:59:05;22.92;;;16.45;;
52284;SDS011;38238;53.304;6.606;2023-01-24T02:01:34;19.63;;;15.13;;
52284;SDS011;38238;53.304;6.606;2023-01-24T02:04:06;20.23;;;15.38;;
52284;SDS011;38238;53.304;6.606;2023-01-24T02:07:00;18.92;;;16.02;;
52284;SDS011;38238;53.304;6.606;2023-01-24T02:09:47;18.75;;;15.02;;
52284;SDS011;38238;53.304;6.606;2023-01-24T02:12:18;21.90;;;15.68;;
52284;SDS011;38238;53.304;6.606;2023-01-24T02:14:50;21.25;;;16.83;;
52284;SDS011;38238;53.304;6.606;2023-01-24T02:17:38;19.38;;;15.25;;
52284;SDS011;38238;53.304;6.606;2023-01-24T02:20:07;20.05;;;14.82;;
52284;SDS011;38238;53.304;6.606;2023-01-24T02:22:50;21.60;;;15.68;;
52284;SDS011;38238;53.304;6.606;2023-01-24T02:28:05;24.52;;;17.10;;
52284;SDS011;38238;53.304;6.606;2023-01-24T02:30:32;21.02;;;17.17;;
52284;SDS011;38238;53.304;6.606;2023-01-24T02:32:58;22.63;;;16.42;;
52284;SDS011;38238;53.304;6.606;2023-01-24T02:35:31;22.00;;;16.80;;
52284;SDS011;38238;53.304;6.606;2023-01-24T02:37:58;20.00;;;16.23;;
52284;SDS011;38238;53.304;6.606;2023-01-24T02:40:26;20.98;;;16.42;;
52284;SDS011;38238;53.304;6.606;2023-01-24T02:42:54;22.33;;;16.50;;
52284;SDS011;38238;53.304;6.606;2023-01-24T02:45:23;19.98;;;16.10;;
52284;SDS011;38238;53.304;6.606;2023-01-24T02:47:52;22.30;;;17.40;;
52284;SDS011;38238;53.304;6.606;2023-01-24T02:50:21;18.00;;;16.08;;
52284;SDS011;38238;53.304;6.606;2023-01-24T02:52:48;23.15;;;18.08;;
52284;SDS011;38238;53.304;6.606;2023-01-24T02:55:33;21.75;;;17.27;;
52284;SDS011;38238;53.304;6.606;2023-01-24T03:00:44;22.17;;;16.83;;
52284;SDS011;38238;53.304;6.606;2023-01-24T03:03:10;23.80;;;17.98;;
52284;SDS011;38238;53.304;6.606;2023-01-24T03:05:36;21.45;;;17.88;;
52284;SDS011;38238;53.304;6.606;2023-01-24T03:08:08;21.27;;;17.95;;
52284;SDS011;38238;53.304;6.606;2023-01-24T03:10:34;21.63;;;17.83;;
52284;SDS011;38238;53.304;6.606;2023-01-24T03:13:00;22.90;;;19.05;;
52284;SDS011;38238;53.304;6.606;2023-01-24T03:15:45;25.38;;;19.38;;
52284;SDS011;38238;53.304;6.606;2023-01-24T03:18:29;25.35;;;21.38;;
52284;SDS011;38238;53.304;6.606;2023-01-24T03:21:13;25.40;;;20.58;;
52284;SDS011;38238;53.304;6.606;2023-01-24T03:23:57;23.40;;;20.65;;
52284;SDS011;38238;53.304;6.606;2023-01-24T03:26:42;23.20;;;20.67;;
52284;SDS011;38238;53.304;6.606;2023-01-24T03:29:26;23.10;;;20.50;;
52284;SDS011;38238;53.304;6.606;2023-01-24T03:32:10;25.88;;;20.60;;
52284;SDS011;38238;53.304;6.606;2023-01-24T03:34:54;26.58;;;21.10;;
52284;SDS011;38238;53.304;6.606;2023-01-24T03:37:21;25.85;;;21.90;;
52284;SDS011;38238;53.304;6.606;2023-01-24T03:40:08;24.75;;;20.85;;
52284;SDS011;38238;53.304;6.606;2023-01-24T03:42:36;24.60;;;20.55;;
52284;SDS011;38238;53.304;6.606;2023-01-24T03:45:17;23.15;;;19.58;;
52284;SDS011;38238;53.304;6.606;2023-01-24T03:47:51;26.45;;;22.17;;
52284;SDS011;38238;53.304;6.606;2023-01-24T03:50:24;25.27;;;20.70;;
52284;SDS011;38238;53.304;6.606;2023-01-24T03:53:17;24.15;;;21.08;;
52284;SDS011;38238;53.304;6.606;2023-01-24T03:55:44;23.63;;;19.15;;
52284;SDS011;38238;53.304;6.606;2023-01-24T03:58:10;22.77;;;19.08;;
52284;SDS011;38238;53.304;6.606;2023-01-24T04:00:36;24.58;;;21.98;;
52284;SDS011;38238;53.304;6.606;2023-01-24T04:03:03;23.67;;;20.27;;
52284;SDS011;38238;53.304;6.606;2023-01-24T04:05:29;21.98;;;18.17;;
52284;SDS011;38238;53.304;6.606;2023-01-24T04:07:55;22.50;;;20.05;;
52284;SDS011;38238;53.304;6.606;2023-01-24T04:10:21;21.17;;;18.88;;
52284;SDS011;38238;53.304;6.606;2023-01-24T04:12:47;21.85;;;18.50;;
52284;SDS011;38238;53.304;6.606;2023-01-24T04:15:23;22.67;;;19.27;;
52284;SDS011;38238;53.304;6.606;2023-01-24T04:17:50;21.25;;;19.00;;
52284;SDS011;38238;53.304;6.606;2023-01-24T04:20:20;21.77;;;18.13;;
52284;SDS011;38238;53.304;6.606;2023-01-24T04:22:45;23.63;;;18.10;;
52284;SDS011;38238;53.304;6.606;2023-01-24T04:25:11;19.45;;;17.23;;
52284;SDS011;38238;53.304;6.606;2023-01-24T04:27:36;18.77;;;16.73;;
52284;SDS011;38238;53.304;6.606;2023-01-24T04:30:07;19.58;;;17.58;;
52284;SDS011;38238;53.304;6.606;2023-01-24T04:32:34;21.25;;;18.25;;
52284;SDS011;38238;53.304;6.606;2023-01-24T04:35:01;20.67;;;18.55;;
52284;SDS011;38238;53.304;6.606;2023-01-24T04:37:28;19.27;;;17.00;;
52284;SDS011;38238;53.304;6.606;2023-01-24T04:39:54;23.35;;;19.75;;
52284;SDS011;38238;53.304;6.606;2023-01-24T04:42:20;22.58;;;20.13;;
52284;SDS011;38238;53.304;6.606;2023-01-24T04:44:46;25.60;;;19.60;;
52284;SDS011;38238;53.304;6.606;2023-01-24T04:47:12;24.40;;;19.15;;
52284;SDS011;38238;53.304;6.606;2023-01-24T04:49:38;21.98;;;17.75;;
52284;SDS011;38238;53.304;6.606;2023-01-24T04:52:03;23.13;;;20.65;;
52284;SDS011;38238;53.304;6.606;2023-01-24T04:54:29;21.92;;;19.38;;
52284;SDS011;38238;53.304;6.606;2023-01-24T04:56:55;19.38;;;17.30;;
52284;SDS011;38238;53.304;6.606;2023-01-24T04:59:20;18.73;;;16.75;;
52284;SDS011;38238;53.304;6.606;2023-01-24T05:01:46;20.90;;;18.70;;
52284;SDS011;38238;53.304;6.606;2023-01-24T05:04:12;18.27;;;16.00;;
52284;SDS011;38238;53.304;6.606;2023-01-24T05:06:38;16.48;;;14.88;;
52284;SDS011;38238;53.304;6.606;2023-01-24T05:09:03;18.40;;;16.58;;
52284;SDS011;38238;53.304;6.606;2023-01-24T05:11:29;16.65;;;14.75;;
52284;SDS011;38238;53.304;6.606;2023-01-24T05:13:55;17.20;;;15.43;;
52284;SDS011;38238;53.304;6.606;2023-01-24T05:16:20;19.75;;;15.50;;
52284;SDS011;38238;53.304;6.606;2023-01-24T05:18:46;16.70;;;13.75;;
52284;SDS011;38238;53.304;6.606;2023-01-24T05:21:13;18.73;;;15.73;;
52284;SDS011;38238;53.304;6.606;2023-01-24T05:23:41;17.30;;;13.70;;
52284;SDS011;38238;53.304;6.606;2023-01-24T05:26:07;19.50;;;15.70;;
52284;SDS011;38238;53.304;6.606;2023-01-24T05:28:33;19.25;;;14.45;;
52284;SDS011;38238;53.304;6.606;2023-01-24T05:31:00;19.88;;;15.52;;
52284;SDS011;38238;53.304;6.606;2023-01-24T05:33:27;21.17;;;18.05;;
52284;SDS011;38238;53.304;6.606;2023-01-24T05:35:57;18.50;;;15.43;;
52284;SDS011;38238;53.304;6.606;2023-01-24T05:38:26;17.98;;;15.90;;
52284;SDS011;38238;53.304;6.606;2023-01-24T05:40:52;17.75;;;15.23;;
52284;SDS011;38238;53.304;6.606;2023-01-24T05:43:18;17.48;;;15.23;;
52284;SDS011;38238;53.304;6.606;2023-01-24T05:45:43;17.77;;;14.80;;
52284;SDS011;38238;53.304;6.606;2023-01-24T05:48:09;18.13;;;15.48;;
52284;SDS011;38238;53.304;6.606;2023-01-24T05:50:35;16.20;;;13.45;;
52284;SDS011;38238;53.304;6.606;2023-01-24T05:53:01;18.83;;;15.15;;
52284;SDS011;38238;53.304;6.606;2023-01-24T05:55:28;16.98;;;14.68;;
52284;SDS011;38238;53.304;6.606;2023-01-24T05:57:54;18.23;;;15.50;;
52284;SDS011;38238;53.304;6.606;2023-01-24T06:00:19;20.40;;;15.25;;
52284;SDS011;38238;53.304;6.606;2023-01-24T06:02:46;18.80;;;14.80;;
52284;SDS011;38238;53.304;6.606;2023-01-24T06:05:11;17.08;;;14.77;;
52284;SDS011;38238;53.304;6.606;2023-01-24T06:07:37;19.30;;;17.27;;
52284;SDS011;38238;53.304;6.606;2023-01-24T06:10:03;19.23;;;14.00;;
52284;SDS011;38238;53.304;6.606;2023-01-24T06:12:29;19.88;;;15.30;;
52284;SDS011;38238;53.304;6.606;2023-01-24T06:14:54;18.25;;;14.63;;
52284;SDS011;38238;53.304;6.606;2023-01-24T06:17:20;18.52;;;14.55;;
52284;SDS011;38238;53.304;6.606;2023-01-24T06:19:46;17.25;;;15.23;;
52284;SDS011;38238;53.304;6.606;2023-01-24T06:22:18;19.67;;;15.80;;
52284;SDS011;38238;53.304;6.606;2023-01-24T06:25:04;21.25;;;17.30;;
52284;SDS011;38238;53.304;6.606;2023-01-24T06:27:30;19.25;;;15.15;;
52284;SDS011;38238;53.304;6.606;2023-01-24T06:29:56;19.45;;;15.38;;
52284;SDS011;38238;53.304;6.606;2023-01-24T06:32:29;17.88;;;14.52;;
52284;SDS011;38238;53.304;6.606;2023-01-24T06:35:11;17.85;;;14.27;;
52284;SDS011;38238;53.304;6.606;2023-01-24T06:37:53;20.23;;;15.63;;
52284;SDS011;38238;53.304;6.606;2023-01-24T06:40:20;18.95;;;15.02;;
52284;SDS011;38238;53.304;6.606;2023-01-24T06:42:48;18.35;;;14.50;;
52284;SDS011;38238;53.304;6.606;2023-01-24T06:45:15;18.63;;;15.02;;
52284;SDS011;38238;53.304;6.606;2023-01-24T06:47:41;19.83;;;16.15;;
52284;SDS011;38238;53.304;6.606;2023-01-24T06:50:18;19.77;;;15.88;;
52284;SDS011;38238;53.304;6.606;2023-01-24T06:52:46;18.73;;;15.02;;
52284;SDS011;38238;53.304;6.606;2023-01-24T06:55:12;21.48;;;16.83;;
52284;SDS011;38238;53.304;6.606;2023-01-24T06:57:38;21.20;;;17.17;;
52284;SDS011;38238;53.304;6.606;2023-01-24T07:00:04;19.60;;;15.50;;
52284;SDS011;38238;53.304;6.606;2023-01-24T07:02:31;20.40;;;15.77;;
52284;SDS011;38238;53.304;6.606;2023-01-24T07:04:56;20.63;;;16.13;;
52284;SDS011;38238;53.304;6.606;2023-01-24T07:07:22;21.25;;;15.75;;
52284;SDS011;38238;53.304;6.606;2023-01-24T07:09:48;21.00;;;16.20;;
52284;SDS011;38238;53.304;6.606;2023-01-24T07:12:13;22.10;;;16.05;;
52284;SDS011;38238;53.304;6.606;2023-01-24T07:14:39;23.33;;;15.73;;
52284;SDS011;38238;53.304;6.606;2023-01-24T07:17:05;22.83;;;15.75;;
52284;SDS011;38238;53.304;6.606;2023-01-24T07:19:31;19.27;;;15.15;;
52284;SDS011;38238;53.304;6.606;2023-01-24T07:21:57;23.13;;;17.08;;
52284;SDS011;38238;53.304;6.606;2023-01-24T07:24:27;19.85;;;15.23;;
52284;SDS011;38238;53.304;6.606;2023-01-24T07:26:54;21.67;;;16.40;;
52284;SDS011;38238;53.304;6.606;2023-01-24T07:29:21;22.00;;;16.23;;
52284;SDS011;38238;53.304;6.606;2023-01-24T07:31:48;20.55;;;15.90;;
52284;SDS011;38238;53.304;6.606;2023-01-24T07:36:55;21.15;;;15.95;;
52284;SDS011;38238;53.304;6.606;2023-01-24T07:39:21;19.38;;;16.25;;
52284;SDS011;38238;53.304;6.606;2023-01-24T07:41:47;18.55;;;14.98;;
52284;SDS011;38238;53.304;6.606;2023-01-24T07:44:13;18.60;;;15.73;;
52284;SDS011;38238;53.304;6.606;2023-01-24T07:46:38;21.25;;;15.15;;
52284;SDS011;38238;53.304;6.606;2023-01-24T07:49:04;18.05;;;14.25;;
52284;SDS011;38238;53.304;6.606;2023-01-24T07:51:30;19.00;;;14.73;;
52284;SDS011;38238;53.304;6.606;2023-01-24T07:53:56;19.38;;;14.18;;
52284;SDS011;38238;53.304;6.606;2023-01-24T07:56:21;19.10;;;15.18;;
52284;SDS011;38238;53.304;6.606;2023-01-24T07:58:47;20.20;;;14.55;;
52284;SDS011;38238;53.304;6.606;2023-01-24T08:01:16;16.75;;;14.07;;
52284;SDS011;38238;53.304;6.606;2023-01-24T08:03:43;22.23;;;16.38;;
52284;SDS011;38238;53.304;6.606;2023-01-24T08:06:09;20.92;;;14.40;;
52284;SDS011;38238;53.304;6.606;2023-01-24T08:08:34;19.02;;;14.88;;
52284;SDS011;38238;53.304;6.606;2023-01-24T08:11:00;16.38;;;13.38;;
52284;SDS011;38238;53.304;6.606;2023-01-24T08:13:26;19.23;;;14.32;;
52284;SDS011;38238;53.304;6.606;2023-01-24T08:15:51;18.85;;;14.50;;
52284;SDS011;38238;53.304;6.606;2023-01-24T08:18:17;19.38;;;14.45;;
52284;SDS011;38238;53.304;6.606;2023-01-24T08:20:44;18.60;;;14.60;;
52284;SDS011;38238;53.304;6.606;2023-01-24T08:23:10;18.13;;;13.30;;
52284;SDS011;38238;53.304;6.606;2023-01-24T08:25:35;17.25;;;12.80;;
52284;SDS011;38238;53.304;6.606;2023-01-24T08:28:01;15.45;;;12.63;;
52284;SDS011;38238;53.304;6.606;2023-01-24T08:30:27;15.55;;;12.85;;
52284;SDS011;38238;53.304;6.606;2023-01-24T08:33:02;16.77;;;13.30;;
52284;SDS011;38238;53.304;6.606;2023-01-24T08:35:29;17.63;;;13.77;;
52284;SDS011;38238;53.304;6.606;2023-01-24T08:37:56;17.15;;;12.07;;
52284;SDS011;38238;53.304;6.606;2023-01-24T08:40:22;16.00;;;14.20;;
52284;SDS011;38238;53.304;6.606;2023-01-24T08:42:48;16.08;;;13.75;;
52284;SDS011;38238;53.304;6.606;2023-01-24T08:45:13;15.77;;;14.20;;
52284;SDS011;38238;53.304;6.606;2023-01-24T08:47:39;17.10;;;13.93;;
52284;SDS011;38238;53.304;6.606;2023-01-24T08:50:05;15.32;;;12.80;;
52284;SDS011;38238;53.304;6.606;2023-01-24T08:52:31;15.80;;;13.40;;
52284;SDS011;38238;53.304;6.606;2023-01-24T08:54:57;17.20;;;13.27;;
52284;SDS011;38238;53.304;6.606;2023-01-24T08:57:22;16.92;;;14.02;;
52284;SDS011;38238;53.304;6.606;2023-01-24T08:59:48;15.95;;;14.30;;
52284;SDS011;38238;53.304;6.606;2023-01-24T09:02:14;15.55;;;13.38;;
52284;SDS011;38238;53.304;6.606;2023-01-24T09:04:41;17.30;;;14.85;;
52284;SDS011;38238;53.304;6.606;2023-01-24T09:07:10;14.82;;;13.02;;
52284;SDS011;38238;53.304;6.606;2023-01-24T09:09:36;16.30;;;14.57;;
52284;SDS011;38238;53.304;6.606;2023-01-24T09:12:01;17.23;;;15.40;;
52284;SDS011;38238;53.304;6.606;2023-01-24T09:14:27;16.13;;;14.45;;
52284;SDS011;38238;53.304;6.606;2023-01-24T09:16:53;16.33;;;14.75;;
52284;SDS011;38238;53.304;6.606;2023-01-24T09:19:19;16.05;;;13.73;;
52284;SDS011;38238;53.304;6.606;2023-01-24T09:21:44;15.27;;;13.68;;
52284;SDS011;38238;53.304;6.606;2023-01-24T09:24:15;14.75;;;12.95;;
52284;SDS011;38238;53.304;6.606;2023-01-24T09:26:43;17.92;;;16.02;;
52284;SDS011;38238;53.304;6.606;2023-01-24T09:29:08;16.98;;;15.27;;
52284;SDS011;38238;53.304;6.606;2023-01-24T09:31:34;18.98;;;17.02;;
52284;SDS011;38238;53.304;6.606;2023-01-24T09:34:01;16.85;;;15.10;;
52284;SDS011;38238;53.304;6.606;2023-01-24T09:36:26;15.95;;;14.30;;
52284;SDS011;38238;53.304;6.606;2023-01-24T09:38:54;18.92;;;16.77;;
52284;SDS011;38238;53.304;6.606;2023-01-24T09:44:00;16.88;;;15.18;;
52284;SDS011;38238;53.304;6.606;2023-01-24T09:46:35;15.90;;;13.95;;
52284;SDS011;38238;53.304;6.606;2023-01-24T09:51:36;15.48;;;13.68;;
52284;SDS011;38238;53.304;6.606;2023-01-24T09:54:09;16.75;;;14.95;;
52284;SDS011;38238;53.304;6.606;2023-01-24T09:56:41;16.50;;;14.75;;
52284;SDS011;38238;53.304;6.606;2023-01-24T09:59:21;16.20;;;14.55;;
52284;SDS011;38238;53.304;6.606;2023-01-24T10:02:00;16.27;;;14.57;;
52284;SDS011;38238;53.304;6.606;2023-01-24T10:04:31;16.27;;;14.70;;
52284;SDS011;38238;53.304;6.606;2023-01-24T10:09:55;14.95;;;13.35;;
52284;SDS011;38238;53.304;6.606;2023-01-24T10:12:47;16.58;;;14.75;;
52284;SDS011;38238;53.304;6.606;2023-01-24T10:15:37;16.02;;;14.45;;
52284;SDS011;38238;53.304;6.606;2023-01-24T10:21:34;15.77;;;14.07;;
52284;SDS011;38238;53.304;6.606;2023-01-24T10:24:12;15.20;;;13.60;;
52284;SDS011;38238;53.304;6.606;2023-01-24T10:26:46;16.42;;;14.48;;
52284;SDS011;38238;53.304;6.606;2023-01-24T10:29:18;16.73;;;13.43;;
52284;SDS011;38238;53.304;6.606;2023-01-24T10:32:01;16.77;;;15.07;;
52284;SDS011;38238;53.304;6.606;2023-01-24T10:37:10;14.73;;;13.32;;
52284;SDS011;38238;53.304;6.606;2023-01-24T10:39:43;16.67;;;14.98;;
52284;SDS011;38238;53.304;6.606;2023-01-24T10:42:12;16.33;;;14.68;;
52284;SDS011;38238;53.304;6.606;2023-01-24T10:44:43;15.88;;;14.10;;
52284;SDS011;38238;53.304;6.606;2023-01-24T10:47:14;17.05;;;15.43;;
52284;SDS011;38238;53.304;6.606;2023-01-24T10:49:47;17.90;;;15.70;;
52284;SDS011;38238;53.304;6.606;2023-01-24T10:52:21;17.60;;;15.73;;
52284;SDS011;38238;53.304;6.606;2023-01-24T10:54:58;16.77;;;15.15;;
52284;SDS011;38238;53.304;6.606;2023-01-24T10:57:42;15.18;;;13.68;;
52284;SDS011;38238;53.304;6.606;2023-01-24T11:00:31;14.90;;;13.45;;
52284;SDS011;38238;53.304;6.606;2023-01-24T11:03:01;19.05;;;17.17;;
52284;SDS011;38238;53.304;6.606;2023-01-24T11:05:51;19.70;;;17.83;;
52284;SDS011;38238;53.304;6.606;2023-01-24T11:08:24;17.80;;;16.00;;
52284;SDS011;38238;53.304;6.606;2023-01-24T11:10:52;15.88;;;14.27;;
52284;SDS011;38238;53.304;6.606;2023-01-24T11:15:48;21.17;;;19.13;;
52284;SDS011;38238;53.304;6.606;2023-01-24T11:18:20;18.85;;;17.17;;
52284;SDS011;38238;53.304;6.606;2023-01-24T11:21:14;19.55;;;17.55;;
52284;SDS011;38238;53.304;6.606;2023-01-24T11:23:41;18.65;;;16.80;;
52284;SDS011;38238;53.304;6.606;2023-01-24T11:31:31;17.73;;;16.05;;
52284;SDS011;38238;53.304;6.606;2023-01-24T11:36:52;19.10;;;17.30;;
52284;SDS011;38238;53.304;6.606;2023-01-24T11:40:01;17.85;;;16.10;;
52284;SDS011;38238;53.304;6.606;2023-01-24T11:42:35;19.50;;;17.55;;
52284;SDS011;38238;53.304;6.606;2023-01-24T11:50:50;17.63;;;15.93;;
52284;SDS011;38238;53.304;6.606;2023-01-24T11:56:22;16.92;;;15.13;;
52284;SDS011;38238;53.304;6.606;2023-01-24T12:10:11;16.17;;;14.27;;
52284;SDS011;38238;53.304;6.606;2023-01-24T12:21:06;19.88;;;17.58;;
52284;SDS011;38238;53.304;6.606;2023-01-24T12:23:35;20.33;;;18.27;;
52284;SDS011;38238;53.304;6.606;2023-01-24T12:26:09;19.00;;;17.08;;
52284;SDS011;38238;53.304;6.606;2023-01-24T12:31:14;20.55;;;18.48;;
52284;SDS011;38238;53.304;6.606;2023-01-24T12:33:58;20.25;;;18.20;;
52284;SDS011;38238;53.304;6.606;2023-01-24T12:36:40;19.20;;;17.45;;
52284;SDS011;38238;53.304;6.606;2023-01-24T12:39:20;18.98;;;16.88;;
52284;SDS011;38238;53.304;6.606;2023-01-24T12:41:58;22.40;;;20.02;;
52284;SDS011;38238;53.304;6.606;2023-01-24T12:44:37;24.67;;;21.02;;
52284;SDS011;38238;53.304;6.606;2023-01-24T12:47:27;22.67;;;19.67;;
52284;SDS011;38238;53.304;6.606;2023-01-24T12:52:38;22.98;;;20.75;;
52284;SDS011;38238;53.304;6.606;2023-01-24T12:57:44;19.75;;;17.77;;
52284;SDS011;38238;53.304;6.606;2023-01-24T13:00:19;21.38;;;19.17;;
52284;SDS011;38238;53.304;6.606;2023-01-24T13:13:36;20.73;;;17.95;;
52284;SDS011;38238;53.304;6.606;2023-01-24T13:18:45;22.27;;;19.95;;
52284;SDS011;38238;53.304;6.606;2023-01-24T13:21:34;22.17;;;19.80;;
52284;SDS011;38238;53.304;6.606;2023-01-24T13:24:24;23.20;;;18.73;;
52284;SDS011;38238;53.304;6.606;2023-01-24T13:32:30;22.90;;;20.52;;
52284;SDS011;38238;53.304;6.606;2023-01-24T13:35:12;27.67;;;20.73;;
52284;SDS011;38238;53.304;6.606;2023-01-24T13:40:28;23.15;;;20.70;;
52284;SDS011;38238;53.304;6.606;2023-01-24T13:43:00;27.73;;;20.60;;
52284;SDS011;38238;53.304;6.606;2023-01-24T13:47:57;24.80;;;22.05;;
52284;SDS011;38238;53.304;6.606;2023-01-24T13:50:24;23.52;;;21.08;;
52284;SDS011;38238;53.304;6.606;2023-01-24T13:52:58;24.73;;;22.45;;
52284;SDS011;38238;53.304;6.606;2023-01-24T14:00:54;23.70;;;21.25;;
52284;SDS011;38238;53.304;6.606;2023-01-24T14:03:35;25.17;;;22.42;;
52284;SDS011;38238;53.304;6.606;2023-01-24T14:16:09;20.88;;;18.67;;
52284;SDS011;38238;53.304;6.606;2023-01-24T14:18:41;22.02;;;19.92;;
52284;SDS011;38238;53.304;6.606;2023-01-24T14:21:23;21.55;;;18.95;;
52284;SDS011;38238;53.304;6.606;2023-01-24T14:23:54;21.73;;;18.80;;
52284;SDS011;38238;53.304;6.606;2023-01-24T14:26:24;22.35;;;20.02;;
52284;SDS011;38238;53.304;6.606;2023-01-24T14:28:55;23.17;;;19.17;;
52284;SDS011;38238;53.304;6.606;2023-01-24T14:31:33;25.23;;;19.27;;
52284;SDS011;38238;53.304;6.606;2023-01-24T14:36:39;23.30;;;20.33;;
52284;SDS011;38238;53.304;6.606;2023-01-24T14:39:15;21.75;;;19.35;;
52284;SDS011;38238;53.304;6.606;2023-01-24T14:41:42;23.70;;;19.17;;
52284;SDS011;38238;53.304;6.606;2023-01-24T14:44:16;20.10;;;18.00;;
52284;SDS011;38238;53.304;6.606;2023-01-24T14:46:54;21.33;;;19.13;;
52284;SDS011;38238;53.304;6.606;2023-01-24T14:52:20;20.55;;;17.45;;
52284;SDS011;38238;53.304;6.606;2023-01-24T14:58:18;22.17;;;19.42;;
52284;SDS011;38238;53.304;6.606;2023-01-24T15:00:49;23.42;;;19.15;;
52284;SDS011;38238;53.304;6.606;2023-01-24T15:03:18;20.23;;;17.90;;
52284;SDS011;38238;53.304;6.606;2023-01-24T15:05:53;22.80;;;20.33;;
52284;SDS011;38238;53.304;6.606;2023-01-24T15:08:24;22.10;;;19.40;;
52284;SDS011;38238;53.304;6.606;2023-01-24T15:10:52;22.23;;;19.23;;
52284;SDS011;38238;53.304;6.606;2023-01-24T15:13:30;21.83;;;19.42;;
52284;SDS011;38238;53.304;6.606;2023-01-24T15:15:57;18.80;;;16.80;;
52284;SDS011;38238;53.304;6.606;2023-01-24T15:18:38;21.25;;;18.50;;
52284;SDS011;38238;53.304;6.606;2023-01-24T15:21:05;20.92;;;17.70;;
52284;SDS011;38238;53.304;6.606;2023-01-24T15:23:37;21.55;;;19.25;;
52284;SDS011;38238;53.304;6.606;2023-01-24T15:28:48;20.20;;;16.90;;
52284;SDS011;38238;53.304;6.606;2023-01-24T15:31:17;19.52;;;16.40;;
52284;SDS011;38238;53.304;6.606;2023-01-24T15:34:13;19.85;;;16.92;;
52284;SDS011;38238;53.304;6.606;2023-01-24T15:36:44;21.00;;;18.60;;
52284;SDS011;38238;53.304;6.606;2023-01-24T15:39:10;15.85;;;14.10;;
52284;SDS011;38238;53.304;6.606;2023-01-24T15:41:38;21.70;;;17.77;;
52284;SDS011;38238;53.304;6.606;2023-01-24T15:44:22;24.48;;;17.85;;
52284;SDS011;38238;53.304;6.606;2023-01-24T15:46:55;19.35;;;17.13;;
52284;SDS011;38238;53.304;6.606;2023-01-24T15:49:59;21.95;;;18.38;;
52284;SDS011;38238;53.304;6.606;2023-01-24T15:55:53;19.52;;;16.70;;
52284;SDS011;38238;53.304;6.606;2023-01-24T15:58:24;20.98;;;17.55;;
52284;SDS011;38238;53.304;6.606;2023-01-24T16:00:53;21.02;;;18.80;;
52284;SDS011;38238;53.304;6.606;2023-01-24T16:03:21;20.88;;;16.88;;
52284;SDS011;38238;53.304;6.606;2023-01-24T16:05:46;20.20;;;17.90;;
52284;SDS011;38238;53.304;6.606;2023-01-24T16:08:12;22.98;;;17.75;;
52284;SDS011;38238;53.304;6.606;2023-01-24T16:10:38;17.30;;;14.93;;
52284;SDS011;38238;53.304;6.606;2023-01-24T16:13:04;19.98;;;17.10;;
52284;SDS011;38238;53.304;6.606;2023-01-24T16:15:30;19.38;;;15.98;;
52284;SDS011;38238;53.304;6.606;2023-01-24T16:17:56;20.75;;;16.55;;
52284;SDS011;38238;53.304;6.606;2023-01-24T16:20:23;20.67;;;18.20;;
52284;SDS011;38238;53.304;6.606;2023-01-24T16:22:53;19.52;;;16.02;;
52284;SDS011;38238;53.304;6.606;2023-01-24T16:25:19;19.92;;;17.27;;
52284;SDS011;38238;53.304;6.606;2023-01-24T16:27:45;20.42;;;16.95;;
52284;SDS011;38238;53.304;6.606;2023-01-24T16:30:17;21.15;;;17.50;;
52284;SDS011;38238;53.304;6.606;2023-01-24T16:32:44;19.48;;;16.38;;
52284;SDS011;38238;53.304;6.606;2023-01-24T16:35:10;21.45;;;18.10;;
52284;SDS011;38238;53.304;6.606;2023-01-24T16:37:36;21.15;;;17.45;;
52284;SDS011;38238;53.304;6.606;2023-01-24T16:40:02;19.38;;;17.30;;
52284;SDS011;38238;53.304;6.606;2023-01-24T16:42:27;21.90;;;17.65;;
52284;SDS011;38238;53.304;6.606;2023-01-24T16:44:57;17.45;;;14.25;;
52284;SDS011;38238;53.304;6.606;2023-01-24T16:47:24;20.63;;;17.60;;